Time;durP1;ratioP1;P1;durP2;ratioP2;P2;SDS_P1;SDS_P2;PMS_P1;PMS_P2;Temp;Humidity;BMP_temperature;BMP_pressure;BME280_temperature;BME280_humidity;BME280_pressure;Samples;Min_cycle;Max_cycle;Signal;HPM_P1;HPM_P2
2024/04/10 00:00:35;;;;;;;2.00;0.70;;;;;;;11.93;62.23;99377.69;5492171;26;42695;-78
2024/04/10 00:03:05;;;;;;;1.93;0.70;;;;;;;11.90;62.59;99374.34;5490249;26;40912;-78
2024/04/10 00:05:34;;;;;;;2.47;0.70;;;;;;;11.84;62.55;99376.44;5490749;26;41209;-78
2024/04/10 00:08:01;;;;;;;2.07;0.90;;;;;;;11.78;62.28;99376.78;5459876;26;41726;-78
2024/04/10 00:10:32;;;;;;;2.80;0.87;;;;;;;11.79;62.20;99365.25;5492190;26;42729;-78
2024/04/10 00:12:59;;;;;;;1.90;1.00;;;;;;;11.78;62.35;99366.19;5494862;26;43177;-78
2024/04/10 00:15:28;;;;;;;1.03;0.80;;;;;;;11.83;62.43;99388.00;5494937;26;40516;-78
2024/04/10 00:17:55;;;;;;;1.20;0.90;;;;;;;11.74;62.71;99364.66;5494532;26;41593;-78
2024/04/10 00:20:24;;;;;;;1.90;0.80;;;;;;;11.82;62.30;99383.63;5493411;26;43635;-78
2024/04/10 00:22:50;;;;;;;2.77;0.80;;;;;;;11.68;62.20;99357.03;5494883;26;41792;-78
2024/04/10 00:25:19;;;;;;;1.20;0.87;;;;;;;11.79;62.25;99381.16;5495108;26;40482;-78
2024/04/10 00:27:48;;;;;;;1.90;0.80;;;;;;;11.70;62.33;99364.91;5495084;26;42746;-78
2024/04/10 00:30:18;;;;;;;1.10;0.90;;;;;;;11.68;62.53;99386.22;5493076;26;44119;-78
2024/04/10 00:32:46;;;;;;;2.40;0.70;;;;;;;11.58;62.96;99370.94;5495133;26;43005;-78
2024/04/10 00:35:16;;;;;;;2.77;0.87;;;;;;;11.57;63.04;99378.03;5464989;26;40330;-78
2024/04/10 00:37:42;;;;;;;2.40;0.93;;;;;;;11.63;63.17;99395.38;5494843;26;41421;-78
2024/04/10 00:40:12;;;;;;;2.30;0.80;;;;;;;11.58;63.57;99382.41;5495063;26;44047;-78
2024/04/10 00:42:38;;;;;;;1.37;0.90;;;;;;;11.42;63.24;99365.66;5493091;26;41961;-78
2024/04/10 00:45:11;;;;;;;1.90;0.73;;;;;;;11.56;63.56;99396.69;5493359;26;39893;-78
2024/04/10 00:47:37;;;;;;;1.53;0.70;;;;;;;11.51;63.44;99392.50;5492862;26;41648;-77
2024/04/10 00:50:08;;;;;;;1.10;0.80;;;;;;;11.24;63.72;99358.78;5494896;26;42933;-78
2024/04/10 00:52:35;;;;;;;2.53;0.80;;;;;;;11.46;63.48;99405.19;5494275;26;41668;-77
2024/04/10 00:55:06;;;;;;;1.67;0.90;;;;;;;11.37;64.33;99399.56;5494905;26;40164;-78
2024/04/10 00:57:33;;;;;;;3.83;1.10;;;;;;;11.30;64.42;99387.56;5494849;26;42430;-78
2024/04/10 01:00:02;;;;;;;2.57;1.00;;;;;;;11.26;64.26;99384.22;5494791;26;42838;-77
2024/04/10 01:02:31;;;;;;;1.30;0.87;;;;;;;11.42;64.04;99421.34;5493033;26;43363;-79
2024/04/10 01:05:00;;;;;;;1.53;0.70;;;;;;;11.30;64.12;99406.13;5493134;26;42099;-78
2024/04/10 01:07:27;;;;;;;1.30;0.90;;;;;;;11.43;63.66;99436.31;5494705;26;41669;-78
2024/04/10 01:09:56;;;;;;;1.83;0.80;;;;;;;11.41;63.60;99433.75;5492749;26;42582;-78
2024/04/10 01:12:24;;;;;;;2.83;0.70;;;;;;;11.38;64.05;99433.06;5494270;26;42132;-77
2024/04/10 01:14:53;;;;;;;1.67;0.83;;;;;;;11.35;64.14;99423.50;5492730;26;41086;-78
2024/04/10 01:17:19;;;;;;;1.63;1.00;;;;;;;11.20;63.79;99404.94;5494675;26;41478;-77
2024/04/10 01:19:51;;;;;;;1.27;0.90;;;;;;;11.20;64.08;99418.19;5492618;26;42796;-78
2024/04/10 01:22:17;;;;;;;1.67;0.70;;;;;;;11.26;64.24;99431.09;5492429;26;41094;-77
2024/04/10 01:24:51;;;;;;;1.20;0.90;;;;;;;11.28;64.29;99431.88;5493400;26;40077;-78
2024/04/10 01:27:18;;;;;;;1.13;0.70;;;;;;;11.15;64.00;99419.31;5492573;26;41545;-78
2024/04/10 01:29:47;;;;;;;2.57;1.00;;;;;;;11.12;64.05;99423.94;5492614;26;42951;-78
2024/04/10 01:32:13;;;;;;;1.60;0.90;;;;;;;11.24;64.19;99440.97;5494385;26;42186;-77
2024/04/10 01:34:43;;;;;;;1.20;0.90;;;;;;;11.09;64.41;99430.25;5494311;26;40367;-77
2024/04/10 01:37:09;;;;;;;1.87;0.80;;;;;;;11.20;64.75;99444.72;5493832;26;41675;-77
2024/04/10 01:39:38;;;;;;;4.03;1.40;;;;;;;11.19;64.57;99454.47;5492571;26;41554;-78
2024/04/10 01:42:07;;;;;;;1.93;1.30;;;;;;;11.07;64.73;99433.94;5494193;26;43374;-78
2024/04/10 01:44:37;;;;;;;3.00;0.90;;;;;;;11.16;64.73;99450.19;5494024;26;40302;-77
2024/04/10 01:47:04;;;;;;;1.23;0.77;;;;;;;11.15;64.71;99459.06;5494403;26;41691;-77
2024/04/10 01:49:33;;;;;;;2.13;1.00;;;;;;;11.16;64.77;99460.78;5494015;26;42753;-78
2024/04/10 01:51:59;;;;;;;2.30;0.93;;;;;;;11.04;65.01;99431.44;5493988;26;42240;-78
2024/04/10 01:54:28;;;;;;;0.90;0.70;;;;;;;11.10;65.07;99445.22;5492372;26;38765;-77
2024/04/10 01:56:55;;;;;;;2.10;1.07;;;;;;;10.96;64.78;99437.19;5494137;26;41654;-78
2024/04/10 01:59:27;;;;;;;1.33;0.93;;;;;;;11.00;64.89;99438.69;5492091;26;43863;-79
2024/04/10 02:01:53;;;;;;;1.37;0.73;;;;;;;11.08;64.63;99454.19;5493405;26;41894;-77
2024/04/10 02:04:23;;;;;;;2.83;1.10;;;;;;;11.10;64.95;99455.84;5492291;26;40816;-78
2024/04/10 02:06:49;;;;;;;2.17;0.80;;;;;;;10.97;65.29;99438.88;5493797;26;41449;-77
2024/04/10 02:09:19;;;;;;;1.73;1.10;;;;;;;11.04;65.24;99450.84;5493892;26;43867;-78
2024/04/10 02:11:45;;;;;;;2.37;0.90;;;;;;;10.93;65.20;99442.63;5491864;26;43681;-78
2024/04/10 02:14:14;;;;;;;1.37;0.70;;;;;;;10.86;65.29;99430.69;5492588;26;39933;-78
2024/04/10 02:16:44;;;;;;;1.30;0.80;;;;;;;11.04;65.76;99465.91;5493850;26;41638;-77
2024/04/10 02:19:13;;;;;;;2.67;1.03;;;;;;;11.00;65.41;99461.72;5494032;26;43768;-77
2024/04/10 02:21:39;;;;;;;1.43;1.07;;;;;;;10.99;65.32;99466.16;5492055;26;43273;-78
2024/04/10 02:24:09;;;;;;;0.77;0.70;;;;;;;10.95;65.18;99467.25;5493691;26;40207;-78
2024/04/10 02:26:35;;;;;;;3.23;1.10;;;;;;;10.98;65.54;99477.72;5461282;26;41659;-77
2024/04/10 02:29:05;;;;;;;2.37;1.07;;;;;;;10.89;65.59;99467.56;5492159;26;41845;-78
2024/04/10 02:31:31;;;;;;;2.10;0.80;;;;;;;10.98;65.60;99483.00;5493742;26;43706;-78
2024/04/10 02:34:03;;;;;;;1.53;0.80;;;;;;;10.90;65.25;99484.34;5493489;26;40078;-78
2024/04/10 02:36:29;;;;;;;1.83;0.80;;;;;;;10.95;65.63;99493.75;5491814;26;41434;-78
2024/04/10 02:38:59;;;;;;;1.40;0.93;;;;;;;10.95;65.53;99508.81;5493554;26;43667;-78
2024/04/10 02:41:25;;;;;;;1.50;0.80;;;;;;;10.87;65.41;99484.53;5493536;26;42203;-77
2024/04/10 02:43:54;;;;;;;2.13;0.87;;;;;;;10.84;65.43;99488.19;5461459;26;40049;-78
2024/04/10 02:46:21;;;;;;;1.73;0.97;;;;;;;10.99;64.94;99516.53;5493267;26;41546;-78
2024/04/10 02:48:50;;;;;;;0.90;0.60;;;;;;;10.90;64.75;99511.69;5493425;26;42892;-77
2024/04/10 02:51:19;;;;;;;1.70;0.87;;;;;;;10.98;65.33;99525.41;5491461;26;42197;-78
2024/04/10 02:53:48;;;;;;;1.57;1.00;;;;;;;10.85;65.38;99497.00;5492096;26;40542;-78
2024/04/10 02:56:14;;;;;;;0.80;0.70;;;;;;;10.95;65.28;99530.88;5493497;26;43019;-78
2024/04/10 02:58:45;;;;;;;1.93;0.87;;;;;;;10.96;65.28;99537.88;5491694;26;42815;-78
2024/04/10 03:01:12;;;;;;;1.67;0.90;;;;;;;10.98;65.28;99551.06;5493467;26;43163;-78
2024/04/10 03:03:42;;;;;;;1.40;0.63;;;;;;;10.95;65.10;99557.38;5460974;26;39746;-78
2024/04/10 03:06:08;;;;;;;2.13;0.77;;;;;;;10.87;65.18;99543.69;5493268;26;42873;-77
2024/04/10 03:08:40;;;;;;;2.23;0.83;;;;;;;10.79;65.40;99540.56;5491563;26;43879;-78
2024/04/10 03:11:07;;;;;;;1.50;1.07;;;;;;;10.83;65.27;99552.72;5493441;26;42281;-78
2024/04/10 03:13:37;;;;;;;3.07;1.00;;;;;;;10.82;65.23;99552.78;5493585;26;39926;-79
2024/04/10 03:16:06;;;;;;;2.53;0.83;;;;;;;10.75;65.11;99557.56;5491450;26;41735;-78
2024/04/10 03:18:36;;;;;;;1.60;1.00;;;;;;;10.79;65.52;99569.69;5492519;26;42656;-78
2024/04/10 03:21:03;;;;;;;1.77;0.70;;;;;;;10.86;65.01;99578.19;5494066;26;42271;-78
2024/04/10 03:23:32;;;;;;;1.60;0.70;;;;;;;10.74;65.18;99566.44;5494051;26;39978;-78
2024/04/10 03:26:08;;;;;;;1.60;0.87;;;;;;;10.69;65.24;99564.03;5492770;26;42796;-78
2024/04/10 03:28:38;;;;;;;3.10;0.80;;;;;;;10.71;65.01;99566.59;5492017;26;43653;-78
2024/04/10 03:31:06;;;;;;;1.53;0.83;;;;;;;10.79;65.11;99588.25;5491171;26;42339;-77
2024/04/10 03:33:36;;;;;;;2.40;0.73;;;;;;;10.78;64.97;99591.81;5491334;26;38795;-78
2024/04/10 03:36:04;;;;;;;1.00;0.73;;;;;;;10.76;65.17;99594.56;5493094;26;43092;-77
2024/04/10 03:38:33;;;;;;;2.43;0.70;;;;;;;10.63;65.33;99576.75;5490957;26;41611;-78
2024/04/10 03:40:59;;;;;;;1.60;0.60;;;;;;;10.69;65.52;99592.31;5492877;26;43069;-77
2024/04/10 03:43:31;;;;;;;3.30;0.93;;;;;;;10.57;65.18;99588.50;5492993;26;41097;-79
2024/04/10 03:46:01;;;;;;;1.57;0.90;;;;;;;10.62;65.38;99593.56;5491510;26;41472;-78
2024/04/10 03:48:30;;;;;;;0.60;0.60;;;;;;;10.42;65.63;99563.63;5492707;26;42658;-77
2024/04/10 03:51:01;;;;;;;1.77;0.70;;;;;;;10.53;65.99;99586.06;5490911;26;41901;-77
2024/04/10 03:53:28;;;;;;;1.17;0.67;;;;;;;10.37;66.04;99573.63;5491023;26;40201;-77
2024/04/10 03:55:57;;;;;;;1.47;0.80;;;;;;;10.37;65.94;99570.97;5492318;26;42602;-77
2024/04/10 03:58:24;;;;;;;1.30;0.57;;;;;;;10.32;66.53;99572.97;5490724;26;42385;-77
2024/04/10 04:00:55;;;;;;;4.73;1.10;;;;;;;10.31;66.93;99587.16;5490413;26;42126;-78
2024/04/10 04:03:24;;;;;;;1.80;0.67;;;;;;;10.31;66.72;99592.44;5490861;26;41297;-78
2024/04/10 04:05:54;;;;;;;2.97;0.70;;;;;;;10.18;66.65;99580.75;5490723;26;41711;-79
2024/04/10 04:08:21;;;;;;;1.37;0.73;;;;;;;10.26;67.10;99594.44;5492346;26;42695;-77
2024/04/10 04:10:50;;;;;;;2.53;0.60;;;;;;;10.24;66.71;99614.03;5490590;26;43403;-78
2024/04/10 04:13:16;;;;;;;1.77;0.80;;;;;;;10.21;66.96;99616.81;5492601;26;39888;-78
2024/04/10 04:15:46;;;;;;;1.70;0.60;;;;;;;10.10;67.17;99606.72;5490137;26;40535;-78
2024/04/10 04:18:15;;;;;;;1.43;0.70;;;;;;;10.15;67.05;99617.91;5489247;26;42567;-77
2024/04/10 04:20:46;;;;;;;2.00;1.00;;;;;;;10.10;67.45;99612.00;5492226;26;42439;-78
2024/04/10 04:23:12;;;;;;;3.23;0.90;;;;;;;9.90;67.22;99588.28;5490357;26;39287;-77
2024/04/10 04:25:41;;;;;;;2.27;0.80;;;;;;;10.07;67.91;99634.19;5491486;26;41503;-77
2024/04/10 04:28:08;;;;;;;4.40;1.27;;;;;;;10.02;67.71;99627.38;5491551;26;42821;-77
2024/04/10 04:30:37;;;;;;;2.70;0.80;;;;;;;9.91;67.75;99616.44;5491096;26;42428;-78
2024/04/10 04:33:04;;;;;;;2.07;0.90;;;;;;;9.98;67.53;99633.78;5491679;26;40754;-77
2024/04/10 04:35:36;;;;;;;3.47;0.77;;;;;;;10.00;67.96;99639.84;5491590;26;41937;-77
2024/04/10 04:38:03;;;;;;;3.47;0.93;;;;;;;10.06;67.90;99656.28;5489416;26;43727;-78
2024/04/10 04:40:33;;;;;;;2.93;1.00;;;;;;;10.09;67.58;99665.88;5491132;26;43146;-77
2024/04/10 04:43:02;;;;;;;1.87;0.70;;;;;;;10.10;67.59;99678.19;5489365;26;40244;-77
2024/04/10 04:45:32;;;;;;;4.03;0.70;;;;;;;10.09;67.44;99672.03;5489152;26;42881;-78
2024/04/10 04:48:00;;;;;;;4.87;1.00;;;;;;;10.05;68.04;99669.59;5489153;26;43931;-78
2024/04/10 04:50:31;;;;;;;5.33;1.30;;;;;;;10.10;67.50;99688.75;5489136;26;43342;-78
2024/04/10 04:53:00;;;;;;;1.03;0.60;;;;;;;10.09;67.61;99687.91;5458316;26;38457;-78
2024/04/10 04:55:31;;;;;;;2.20;0.80;;;;;;;10.13;67.60;99693.91;5490268;26;42886;-78
2024/04/10 04:57:57;;;;;;;2.63;1.03;;;;;;;10.07;67.90;99686.25;5492386;26;43757;-78
2024/04/10 05:00:27;;;;;;;3.47;0.87;;;;;;;10.06;67.50;99687.19;5494137;26;43338;-77
2024/04/10 05:02:53;;;;;;;4.00;0.97;;;;;;;10.14;67.93;99706.19;5492253;26;40174;-78
2024/04/10 05:05:20;;;;;;;1.80;1.10;;;;;;;10.13;67.75;99709.81;5494281;26;41656;-77
2024/04/10 05:07:50;;;;;;;2.90;1.20;;;;;;;10.15;67.48;99720.28;5493918;26;44083;-78
2024/04/10 05:10:22;;;;;;;1.93;0.87;;;;;;;10.03;67.67;99719.06;5494413;26;42310;-78
2024/04/10 05:12:49;;;;;;;4.23;1.00;;;;;;;9.83;67.75;99679.47;5494244;26;40360;-77
2024/04/10 05:15:19;;;;;;;3.60;1.03;;;;;;;10.16;67.48;99735.25;5494072;26;42841;-78
2024/04/10 05:17:48;;;;;;;2.10;0.80;;;;;;;10.15;67.31;99742.31;5493781;26;42438;-78
2024/04/10 05:20:17;;;;;;;3.27;0.97;;;;;;;10.13;67.57;99738.91;5491351;26;43329;-78
2024/04/10 05:22:44;;;;;;;1.70;0.80;;;;;;;10.12;67.51;99738.97;5493659;26;41381;-77
2024/04/10 05:25:14;;;;;;;3.10;1.00;;;;;;;10.15;67.53;99739.69;5491919;26;41605;-78
2024/04/10 05:27:43;;;;;;;2.97;0.97;;;;;;;10.17;67.60;99737.81;5491634;26;43981;-78
2024/04/10 05:30:16;;;;;;;2.53;1.00;;;;;;;10.17;67.86;99740.47;5493282;26;42830;-81
2024/04/10 05:32:43;;;;;;;1.57;0.80;;;;;;;10.16;67.14;99736.09;5454319;26;39167;-80
2024/04/10 05:35:14;;;;;;;3.27;0.80;;;;;;;10.24;67.39;99749.88;5455347;26;42604;-81
2024/04/10 05:37:40;;;;;;;2.67;1.27;;;;;;;10.25;67.37;99759.56;5456761;26;42584;-81
2024/04/10 05:40:13;;;;;;;1.83;0.83;;;;;;;10.24;67.42;99760.47;5455898;26;42188;-80
2024/04/10 05:42:43;;;;;;;2.73;0.80;;;;;;;10.23;67.52;99766.69;5465330;26;40297;-78
2024/04/10 05:45:14;;;;;;;4.37;0.97;;;;;;;10.24;67.28;99776.38;5491595;26;42803;-78
2024/04/10 05:47:43;;;;;;;2.50;1.20;;;;;;;10.25;67.15;99766.63;5483316;26;44005;-77
2024/04/10 05:50:13;;;;;;;3.30;1.10;;;;;;;10.17;67.26;99759.00;5453147;26;42209;-76
2024/04/10 05:52:44;;;;;;;3.60;0.80;;;;;;;10.09;67.35;99734.69;5454037;26;40293;-78
2024/04/10 05:55:11;;;;;;;3.50;1.10;;;;;;;10.30;67.14;99764.59;5423021;26;40402;-78
2024/04/10 05:57:40;;;;;;;2.63;1.13;;;;;;;10.49;66.69;99780.50;5453010;26;43554;-78
2024/04/10 06:00:11;;;;;;;2.37;1.10;;;;;;;10.59;66.60;99773.84;5455527;26;41968;-78
2024/04/10 06:02:45;;;;;;;3.77;1.30;;;;;;;10.72;65.88;99788.22;5455101;26;40118;-77
2024/04/10 06:05:12;;;;;;;5.10;1.00;;;;;;;10.84;66.35;99792.91;5423454;26;41891;-78
2024/04/10 06:07:42;;;;;;;2.00;1.17;;;;;;;10.80;65.95;99773.66;5454008;26;41895;-77
2024/04/10 06:10:09;;;;;;;5.53;1.50;;;;;;;11.00;65.60;99791.22;5487875;26;41062;-83
2024/04/10 06:12:38;;;;;;;5.23;1.53;;;;;;;11.12;65.08;99808.34;5461358;26;39983;-78
2024/04/10 06:15:05;;;;;;;3.60;1.10;;;;;;;11.09;64.71;99804.03;5492734;26;42362;-78
2024/04/10 06:17:37;;;;;;;3.33;1.07;;;;;;;11.08;64.44;99797.00;5493216;26;43027;-78
2024/04/10 06:20:05;;;;;;;5.67;1.10;;;;;;;11.11;64.40;99798.66;5462798;26;41012;-79
2024/04/10 06:22:34;;;;;;;4.00;1.00;;;;;;;11.13;64.18;99800.28;5455090;26;40958;-77
2024/04/10 06:25:00;;;;;;;4.37;0.90;;;;;;;11.21;63.80;99807.00;5454339;26;42875;-77
2024/04/10 06:27:29;;;;;;;2.03;1.10;;;;;;;11.32;63.88;99825.88;5456214;26;44129;-78
2024/04/10 06:29:56;;;;;;;3.97;1.20;;;;;;;11.32;63.71;99825.88;5475723;26;43162;-78
2024/04/10 06:32:25;;;;;;;3.77;1.20;;;;;;;11.49;63.26;99844.47;5493165;26;40981;-78
2024/04/10 06:34:54;;;;;;;5.33;1.20;;;;;;;11.55;63.38;99844.16;5473359;26;41781;-79
2024/04/10 06:37:23;;;;;;;3.30;1.30;;;;;;;11.58;63.06;99833.41;5456132;26;42248;-78
2024/04/10 06:39:50;;;;;;;1.87;1.43;;;;;;;11.76;63.15;99852.84;5471200;26;43141;-80
2024/04/10 06:42:19;;;;;;;3.63;1.23;;;;;;;11.73;63.22;99831.75;5493202;26;40131;-78
2024/04/10 06:44:48;;;;;;;1.93;1.27;;;;;;;11.63;62.52;99810.13;5494134;26;41881;-78
2024/04/10 06:47:17;;;;;;;3.63;1.07;;;;;;;11.98;62.30;99839.34;5493299;26;43911;-78
2024/04/10 06:49:43;;;;;;;3.13;1.07;;;;;;;12.13;62.14;99860.59;5492852;26;42222;-78
2024/04/10 06:52:15;;;;;;;2.90;1.40;;;;;;;12.14;61.53;99843.72;5460427;26;40434;-78
2024/04/10 06:54:42;;;;;;;4.83;1.50;;;;;;;12.29;60.76;99847.38;5487142;26;43019;-78
2024/04/10 06:57:11;;;;;;;3.23;1.13;;;;;;;12.63;60.78;99866.78;5454481;26;42673;-79
2024/04/10 06:59:37;;;;;;;4.80;1.40;;;;;;;12.69;60.19;99853.19;5455386;26;42133;-79
2024/04/10 07:02:06;;;;;;;3.77;1.33;;;;;;;12.90;59.49;99857.28;5460750;26;39976;-78
2024/04/10 07:04:32;;;;;;;4.47;1.20;;;;;;;13.40;58.75;99890.84;5492949;26;42553;-79
2024/04/10 07:07:05;;;;;;;3.73;1.10;;;;;;;13.78;57.56;99908.09;5455917;26;42948;-76
2024/04/10 07:09:34;;;;;;;5.53;1.40;;;;;;;14.08;56.48;99915.22;5454367;26;41240;-77
2024/04/10 07:12:04;;;;;;;7.00;1.40;;;;;;;14.38;55.63;99916.00;5488323;26;41006;-81
2024/04/10 07:14:34;;;;;;;4.43;1.13;;;;;;;14.57;55.66;99903.31;5492571;26;42026;-81
2024/04/10 07:17:04;;;;;;;2.53;1.20;;;;;;;14.79;54.94;99915.28;5490485;26;43780;-79
2024/04/10 07:19:34;;;;;;;4.27;1.20;;;;;;;15.05;54.43;99917.19;5492567;26;43027;-79
2024/04/10 07:22:06;;;;;;;4.57;1.60;;;;;;;15.38;53.00;99944.34;5490113;26;39570;-77
2024/04/10 07:24:35;;;;;;;3.30;0.97;;;;;;;15.68;51.82;99956.69;5492587;26;41842;-76
2024/04/10 07:27:04;;;;;;;7.03;1.40;;;;;;;15.66;51.60;99937.25;5466617;26;42680;-80
2024/04/10 07:29:31;;;;;;;4.17;1.17;;;;;;;15.96;50.81;99940.53;5456336;26;42177;-80
2024/04/10 07:32:01;;;;;;;4.97;1.10;;;;;;;16.28;51.63;99934.81;5455413;26;41223;-78
2024/04/10 07:34:28;;;;;;;4.30;1.17;;;;;;;16.77;50.84;99945.66;5453906;26;41514;-76
2024/04/10 07:36:57;;;;;;;3.13;1.33;;;;;;;17.16;50.29;99961.56;5473524;26;43980;-75
2024/04/10 07:39:23;;;;;;;4.83;1.33;;;;;;;17.36;48.88;99968.13;5490310;26;42816;-76
2024/04/10 07:45:24;;;;;;;2.93;1.40;;;;;;;18.28;46.61;100000.56;5509967;26;20569;-78
2024/04/10 07:47:51;;;;;;;3.70;1.30;;;;;;;18.53;45.81;99987.94;5510530;26;41055;-78
2024/04/10 07:50:20;;;;;;;4.97;1.57;;;;;;;18.66;46.06;100002.16;5481518;26;40426;-79
2024/04/10 07:52:46;;;;;;;4.37;1.37;;;;;;;18.77;44.65;100022.78;5496011;26;43997;-77
2024/04/10 07:55:16;;;;;;;4.10;1.40;;;;;;;19.12;43.79;100028.06;5478449;26;41940;-77
2024/04/10 07:57:42;;;;;;;5.00;1.43;;;;;;;19.15;43.40;100022.47;5493230;26;41269;-76
2024/04/10 08:00:14;;;;;;;4.50;1.40;;;;;;;19.30;44.13;100022.06;5509277;26;41693;-77
2024/04/10 08:02:43;;;;;;;2.47;1.20;;;;;;;19.33;43.54;100015.59;5510261;26;42967;-77
2024/04/10 08:05:12;;;;;;;3.37;1.10;;;;;;;19.63;43.06;100015.00;5510445;26;41960;-77
2024/04/10 08:07:38;;;;;;;3.13;1.43;;;;;;;19.91;42.42;100051.22;5510523;26;41234;-77
2024/04/10 08:10:08;;;;;;;6.77;1.37;;;;;;;19.66;41.92;100026.34;5510754;26;42028;-79
2024/04/10 08:12:35;;;;;;;4.80;1.57;;;;;;;19.73;42.68;100050.91;5509016;26;45533;-79
2024/04/10 08:15:04;;;;;;;3.73;1.23;;;;;;;20.74;42.13;100051.41;5510208;26;43289;-80
2024/04/10 08:17:30;;;;;;;4.03;1.27;;;;;;;21.71;39.57;100077.03;5509987;26;41058;-77
2024/04/10 08:20:03;;;;;;;4.97;1.27;;;;;;;21.41;38.70;100073.38;5510116;26;41603;-78
2024/04/10 08:22:29;;;;;;;4.50;1.13;;;;;;;21.47;38.18;100072.00;5510050;26;42895;-80
2024/04/10 08:24:58;;;;;;;5.80;1.43;;;;;;;21.56;38.25;100095.44;5510041;26;42169;-80
2024/04/10 08:27:25;;;;;;;3.23;1.20;;;;;;;22.20;38.18;100078.88;5509962;26;41568;-81
2024/04/10 08:29:54;;;;;;;2.53;1.43;;;;;;;21.95;37.48;100082.06;5508225;26;41660;-78
2024/04/10 08:32:20;;;;;;;3.77;1.10;;;;;;;21.50;37.26;100112.16;5508787;26;42675;-79
2024/04/10 08:34:49;;;;;;;3.80;1.03;;;;;;;21.01;38.55;100099.38;5509974;26;42247;-81
2024/04/10 08:37:18;;;;;;;2.43;0.90;;;;;;;21.79;38.89;100087.97;5510936;26;39768;-81
2024/04/10 08:39:50;;;;;;;2.83;1.10;;;;;;;22.66;36.99;100105.19;5508631;26;41861;-81
2024/04/10 08:42:19;;;;;;;1.53;0.83;;;;;;;22.31;37.26;100105.75;5511678;26;42877;-82
2024/04/10 08:44:49;;;;;;;1.80;1.20;;;;;;;22.50;36.73;100124.66;5477899;26;42238;-82
2024/04/10 08:47:16;;;;;;;3.03;1.30;;;;;;;23.17;36.59;100117.53;5510901;26;41659;-81
2024/04/10 08:49:45;;;;;;;2.57;1.37;;;;;;;24.06;35.74;100136.88;5482651;26;43148;-80
2024/04/10 08:52:15;;;;;;;3.93;1.27;;;;;;;23.96;34.71;100137.81;5472078;26;42475;-82
2024/04/10 08:54:47;;;;;;;3.77;1.40;;;;;;;23.48;34.60;100131.72;5467533;26;42094;-83
2024/04/10 08:57:14;;;;;;;5.00;1.77;;;;;;;22.75;35.59;100154.81;5458349;26;40078;-80
2024/04/10 08:59:43;;;;;;;2.60;1.00;;;;;;;21.88;36.91;100132.19;5477564;26;43015;-82
2024/04/10 09:02:11;;;;;;;4.17;1.07;;;;;;;21.22;37.21;100150.56;5494501;26;44006;-79
2024/04/10 09:04:45;;;;;;;6.17;1.60;;;;;;;21.70;37.60;100143.59;5493689;26;41907;-80
2024/04/10 09:07:17;;;;;;;3.23;1.43;;;;;;;24.02;34.37;100154.41;5460315;26;39989;-82
2024/04/10 09:09:52;;;;;;;4.00;1.43;;;;;;;25.68;33.23;100162.84;5472893;26;41918;-82
2024/04/10 09:12:22;;;;;;;3.63;1.20;;;;;;;26.09;32.20;100151.16;5494879;26;42684;-81
2024/04/10 09:14:51;;;;;;;2.37;1.10;;;;;;;25.65;31.53;100168.56;5492349;26;41464;-82
2024/04/10 09:17:17;;;;;;;3.20;1.40;;;;;;;25.47;31.70;100162.34;5494694;26;40016;-81
2024/04/10 09:19:47;;;;;;;2.10;1.17;;;;;;;24.95;32.14;100164.97;5483456;26;41742;-82
2024/04/10 09:22:13;;;;;;;2.67;1.03;;;;;;;24.57;32.51;100166.97;5458038;26;42708;-80
2024/04/10 09:24:42;;;;;;;2.53;1.13;;;;;;;24.84;33.39;100149.78;5463996;26;42221;-82
2024/04/10 09:27:12;;;;;;;3.93;1.20;;;;;;;25.28;31.19;100183.22;5493159;26;39650;-85
2024/04/10 09:29:41;;;;;;;3.77;1.40;;;;;;;25.54;31.38;100183.22;5493925;26;41885;-87
2024/04/10 09:32:11;;;;;;;3.60;1.33;;;;;;;26.27;30.02;100182.78;5494564;26;42417;-83
2024/04/10 09:34:41;;;;;;;2.67;1.33;;;;;;;27.54;29.06;100201.38;5493989;26;41914;-84
2024/04/10 09:37:09;;;;;;;4.75;1.40;;;;;;;28.38;27.51;100218.19;5492938;26;39629;-79
2024/04/10 09:39:38;;;;;;;3.03;1.33;;;;;;;29.16;26.68;100204.47;5462005;26;40723;-80
2024/04/10 09:42:20;;;;;;;5.57;1.58;;;;;;;30.20;25.69;100220.88;5462117;26;41743;-81
2024/04/10 09:44:57;;;;;;;1.58;0.82;;;;;;;30.05;26.79;100210.97;5502207;26;43068;-79
2024/04/10 09:47:25;;;;;;;2.22;1.20;;;;;;;29.59;27.21;100195.56;5499888;26;40566;-84
2024/04/10 09:50:01;;;;;;;3.17;1.30;;;;;;;28.38;27.33;100194.53;5492749;26;42686;-82
2024/04/10 09:52:29;;;;;;;2.63;1.13;;;;;;;27.08;28.75;100202.91;5493333;26;43516;-84
2024/04/10 09:54:59;;;;;;;2.50;1.00;;;;;;;25.79;29.56;100189.69;5492801;26;41856;-86
2024/04/10 09:57:29;;;;;;;4.07;1.30;;;;;;;24.80;30.97;100185.47;5493483;26;41288;-83
2024/04/10 10:00:00;;;;;;;2.43;1.10;;;;;;;23.82;31.58;100176.16;5492169;26;41660;-79
2024/04/10 10:02:34;;;;;;;3.87;1.33;;;;;;;23.23;32.04;100193.53;5493829;26;43883;-80
2024/04/10 10:05:03;;;;;;;3.80;1.30;;;;;;;23.20;32.82;100193.78;5493730;26;42204;-82
2024/04/10 10:07:29;;;;;;;3.43;1.30;;;;;;;24.06;32.40;100199.16;5493721;26;40335;-83
2024/04/10 10:10:07;;;;;;;3.73;1.20;;;;;;;25.02;30.38;100196.72;5493470;26;42766;-80
2024/04/10 10:12:36;;;;;;;2.83;1.53;;;;;;;25.27;30.70;100167.94;5493431;26;42902;-79
2024/04/10 10:15:09;;;;;;;2.10;1.23;;;;;;;25.52;31.13;100174.41;5491860;26;42879;-82
2024/04/10 10:17:36;;;;;;;4.07;1.43;;;;;;;25.80;29.67;100201.41;5493093;26;41762;-80
2024/04/10 10:20:06;;;;;;;2.53;1.20;;;;;;;25.71;29.87;100186.94;5493722;26;41524;-78
2024/04/10 10:22:33;;;;;;;1.57;0.97;;;;;;;25.44;29.70;100185.22;5491570;26;42567;-80
2024/04/10 10:25:02;;;;;;;1.97;1.10;;;;;;;24.99;30.73;100182.63;5493364;26;42060;-82
2024/04/10 10:27:29;;;;;;;2.50;1.53;;;;;;;24.43;30.46;100189.16;5491779;26;40685;-80
2024/04/10 10:30:10;;;;;;;2.87;1.23;;;;;;;24.06;30.42;100218.09;5492133;26;41849;-81
2024/04/10 10:32:36;;;;;;;2.57;1.50;;;;;;;23.53;31.85;100189.78;5493884;26;42833;-83
2024/04/10 10:35:09;;;;;;;3.73;1.30;;;;;;;23.32;32.57;100190.94;5493434;26;41616;-80
2024/04/10 10:37:36;;;;;;;4.17;1.20;;;;;;;23.02;33.16;100192.78;5493407;26;39918;-80
2024/04/10 10:40:06;;;;;;;2.43;1.43;;;;;;;22.87;33.15;100203.16;5491661;26;41910;-80
2024/04/10 10:42:32;;;;;;;2.43;1.00;;;;;;;22.73;32.89;100210.84;5478896;26;43133;-81
2024/04/10 10:45:08;;;;;;;3.47;1.37;;;;;;;22.56;32.63;100197.00;5456366;26;41882;-81
2024/04/10 10:47:38;;;;;;;3.07;1.20;;;;;;;22.57;32.26;100212.22;5465429;26;40105;-82
2024/04/10 10:50:08;;;;;;;3.27;1.00;;;;;;;22.53;32.67;100199.13;5492106;26;42369;-81
2024/04/10 10:52:36;;;;;;;4.33;1.10;;;;;;;22.68;32.66;100213.94;5493685;26;42349;-82
2024/04/10 10:55:07;;;;;;;3.63;1.03;;;;;;;22.73;32.92;100210.84;5491616;26;42089;-81
2024/04/10 10:57:34;;;;;;;1.27;0.87;;;;;;;22.79;34.07;100191.38;5486884;26;41152;-83
2024/04/10 11:00:17;;;;;;;4.40;1.47;;;;;;;23.01;33.05;100193.78;5455608;26;41668;-85
2024/04/10 11:02:44;;;;;;;2.00;0.87;;;;;;;23.25;31.92;100191.50;5454650;26;42989;-83
2024/04/10 11:05:14;;;;;;;2.40;1.13;;;;;;;24.33;32.75;100208.16;5456984;26;42229;-78
2024/04/10 11:07:41;;;;;;;2.73;1.10;;;;;;;24.78;32.29;100171.22;5457256;26;39827;-81
2024/04/10 11:10:13;;;;;;;3.23;1.27;;;;;;;25.77;31.29;100186.28;5491884;26;41721;-83
2024/04/10 11:12:40;;;;;;;2.30;0.97;;;;;;;27.73;27.76;100221.94;5461156;26;41335;-79
2024/04/10 11:15:11;;;;;;;5.60;1.20;;;;;;;27.87;27.32;100229.41;5492692;26;41882;-85
2024/04/10 11:17:41;;;;;;;3.00;1.23;;;;;;;27.63;26.35;100250.38;5460781;26;38485;-79
2024/04/10 11:20:11;;;;;;;1.47;1.00;;;;;;;28.49;25.76;100248.63;5491139;26;41465;-82
2024/04/10 11:22:38;;;;;;;7.78;1.30;;;;;;;31.00;24.68;100250.94;5491579;26;41420;-84
2024/04/10 11:25:07;;;;;;;3.22;0.90;;;;;;;32.40;23.13;100216.25;5490878;26;42222;-83
2024/04/10 11:27:34;;;;;;;2.83;1.33;;;;;;;31.39;23.09;100233.25;5461629;26;40479;-84
2024/04/10 11:30:03;;;;;;;2.70;1.40;;;;;;;29.95;23.36;100228.47;5463349;26;42995;-82
2024/04/10 11:32:30;;;;;;;2.87;1.00;;;;;;;28.89;25.54;100220.34;5455854;26;42620;-82
2024/04/10 11:35:01;;;;;;;3.67;1.10;;;;;;;28.08;25.77;100236.16;5476837;26;41673;-85
2024/04/10 11:37:28;;;;;;;2.03;1.20;;;;;;;27.25;26.48;100222.81;5491184;26;41071;-85
2024/04/10 11:39:59;;;;;;;2.70;0.90;;;;;;;26.52;26.71;100236.22;5471178;26;41760;-81
2024/04/10 11:42:26;;;;;;;2.57;1.57;;;;;;;25.81;27.36;100233.81;5423866;26;43672;-80